createdAt,value
2019-06-20T00:01:13.772Z,21.30
2019-06-20T00:03:42.533Z,21.30
2019-06-20T00:06:13.073Z,21.30
2019-06-20T00:08:42.590Z,21.20
2019-06-20T00:11:21.144Z,21.20
2019-06-20T00:14:02.852Z,21.20
2019-06-20T00:16:52.683Z,21.10
2019-06-20T00:19:21.277Z,21.10
2019-06-20T00:22:01.898Z,21.00
2019-06-20T00:24:30.853Z,21.00
2019-06-20T00:27:11.601Z,21.00
2019-06-20T00:29:52.838Z,21.00
2019-06-20T00:32:22.316Z,20.90
2019-06-20T00:34:51.033Z,20.90
2019-06-20T00:37:19.626Z,20.90
2019-06-20T00:39:48.402Z,20.90
2019-06-20T00:42:18.412Z,20.90
2019-06-20T00:44:46.958Z,20.90
2019-06-20T00:47:15.666Z,20.80
2019-06-20T00:49:45.532Z,20.80
2019-06-20T00:52:14.291Z,20.80
2019-06-20T00:54:43.841Z,20.70
2019-06-20T00:57:13.632Z,20.70
2019-06-20T00:59:42.824Z,20.70
2019-06-20T01:02:11.509Z,20.70
2019-06-20T01:04:40.317Z,20.60
2019-06-20T01:07:09.335Z,20.60
2019-06-20T01:09:37.964Z,20.60
2019-06-20T01:12:06.647Z,20.50
2019-06-20T01:14:35.322Z,20.40
2019-06-20T01:17:05.273Z,20.40
2019-06-20T01:19:33.872Z,20.40
2019-06-20T01:22:04.736Z,20.30
2019-06-20T01:24:35.472Z,20.30
2019-06-20T01:27:04.089Z,20.30
2019-06-20T01:29:32.692Z,20.30
2019-06-20T01:32:01.415Z,20.30
2019-06-20T01:34:33.394Z,20.30
2019-06-20T01:37:02.033Z,20.40
2019-06-20T01:39:30.769Z,20.40
2019-06-20T01:41:59.532Z,20.30
2019-06-20T01:44:28.110Z,20.40
2019-06-20T01:46:56.824Z,20.40
2019-06-20T01:49:25.468Z,20.40
2019-06-20T01:51:54.218Z,20.30
2019-06-20T01:54:22.881Z,20.30
2019-06-20T01:56:53.554Z,20.30
2019-06-20T01:59:22.318Z,20.30
2019-06-20T02:01:51.043Z,20.30
2019-06-20T02:04:19.673Z,20.20
2019-06-20T02:06:48.440Z,20.20
2019-06-20T02:09:17.090Z,20.20
2019-06-20T02:11:46.500Z,20.10
2019-06-20T02:14:16.163Z,20.10
2019-06-20T02:16:44.814Z,20.10
2019-06-20T02:19:14.672Z,20.10
2019-06-20T02:21:43.288Z,20.00
2019-06-20T02:24:12.023Z,20.10
2019-06-20T02:26:42.123Z,20.10
2019-06-20T02:29:13.527Z,20.20
2019-06-20T02:31:42.424Z,20.10
2019-06-20T02:34:10.896Z,20.10
2019-06-20T02:36:39.851Z,20.10
2019-06-20T02:39:09.306Z,20.10
2019-06-20T02:41:38.216Z,20.10
2019-06-20T02:44:24.701Z,20.00
2019-06-20T02:46:39.946Z,20.10
2019-06-20T02:49:08.495Z,20.10
2019-06-20T02:51:37.682Z,20.10
2019-06-20T02:54:06.557Z,20.10
2019-06-20T02:56:35.139Z,20.10
2019-06-20T02:59:05.956Z,20.10
2019-06-20T03:01:34.676Z,20.10
2019-06-20T03:04:04.614Z,20.10
2019-06-20T03:06:33.240Z,20.10
2019-06-20T03:09:01.876Z,20.10
2019-06-20T03:11:30.546Z,20.10
2019-06-20T03:13:59.216Z,20.20
2019-06-20T03:16:27.958Z,20.20
2019-06-20T03:18:56.600Z,20.40
2019-06-20T03:21:25.282Z,20.40
2019-06-20T03:23:54.002Z,20.40
2019-06-20T03:26:23.883Z,20.40
2019-06-20T03:28:52.616Z,20.50
2019-06-20T03:31:21.301Z,20.50
2019-06-20T03:33:49.949Z,20.50
2019-06-20T03:36:18.696Z,20.60
2019-06-20T03:38:47.434Z,20.60
2019-06-20T03:41:16.010Z,20.70
2019-06-20T03:43:46.745Z,20.60
2019-06-20T03:46:15.477Z,20.70
2019-06-20T03:48:44.123Z,20.80
2019-06-20T03:51:12.790Z,20.90
2019-06-20T03:53:42.479Z,21.00
2019-06-20T03:56:12.218Z,21.10
2019-06-20T03:58:40.970Z,21.20
2019-06-20T04:01:09.655Z,21.20
2019-06-20T04:03:38.280Z,21.20
2019-06-20T04:06:06.960Z,21.20
2019-06-20T04:08:35.675Z,21.30
2019-06-20T04:11:06.399Z,21.40
2019-06-20T04:13:35.104Z,21.50
2019-06-20T04:16:03.944Z,21.50
2019-06-20T04:18:32.440Z,21.50
2019-06-20T04:21:01.123Z,21.60
2019-06-20T04:23:29.866Z,21.60
2019-06-20T04:25:58.491Z,21.60
2019-06-20T04:28:27.183Z,21.70
2019-06-20T04:30:55.972Z,21.80
2019-06-20T04:33:24.556Z,21.90
2019-06-20T04:35:53.388Z,22.00
2019-06-20T04:38:21.980Z,22.10
2019-06-20T04:40:50.622Z,22.30
2019-06-20T04:43:20.112Z,22.50
2019-06-20T04:46:06.926Z,22.70
2019-06-20T04:48:35.520Z,23.00
2019-06-20T04:51:04.091Z,23.30
2019-06-20T04:53:32.951Z,23.40
2019-06-20T04:56:05.591Z,23.60
2019-06-20T04:58:33.131Z,23.90
2019-06-20T05:01:01.883Z,24.00
2019-06-20T05:03:30.813Z,24.30
2019-06-20T05:06:01.715Z,24.50
2019-06-20T05:08:30.373Z,25.00
2019-06-20T05:10:59.912Z,25.10
2019-06-20T05:13:28.527Z,25.10
2019-06-20T05:15:57.300Z,24.80
2019-06-20T05:18:27.124Z,24.90
2019-06-20T05:20:55.826Z,24.80
2019-06-20T05:23:24.540Z,24.70
2019-06-20T05:25:54.105Z,24.70
2019-06-20T05:28:22.700Z,24.60
2019-06-20T05:30:53.967Z,24.50
2019-06-20T05:33:22.557Z,24.30
2019-06-20T05:35:52.076Z,23.80
2019-06-20T05:38:20.795Z,23.50
2019-06-20T05:40:49.443Z,23.60
2019-06-20T05:43:18.087Z,23.50
2019-06-20T05:46:05.475Z,23.40
2019-06-20T05:48:22.014Z,23.20
2019-06-20T05:50:51.549Z,23.10
2019-06-20T05:53:20.223Z,23.10
2019-06-20T05:55:48.881Z,23.10
2019-06-20T05:58:17.589Z,23.00
2019-06-20T06:00:46.389Z,22.90
2019-06-20T06:03:15.984Z,22.90
2019-06-20T06:05:44.943Z,22.80
2019-06-20T06:08:16.307Z,22.90
2019-06-20T06:10:45.105Z,23.00
2019-06-20T06:13:13.782Z,23.20
2019-06-20T06:15:43.589Z,23.30
2019-06-20T06:18:12.386Z,23.40
2019-06-20T06:20:44.643Z,23.40
2019-06-20T06:23:11.487Z,23.40
2019-06-20T06:25:42.166Z,23.20
2019-06-20T06:28:12.434Z,23.20
2019-06-20T06:30:41.413Z,23.10
2019-06-20T06:33:11.084Z,23.10
2019-06-20T06:35:39.860Z,23.20
2019-06-20T06:38:21.915Z,23.20
2019-06-20T06:40:47.434Z,23.20
2019-06-20T06:43:17.267Z,23.30
2019-06-20T06:45:46.022Z,23.40
2019-06-20T06:48:20.461Z,23.50
2019-06-20T06:50:49.221Z,23.50
2019-06-20T06:53:23.950Z,23.60
2019-06-20T06:55:54.711Z,23.60
2019-06-20T06:58:31.238Z,23.60
2019-06-20T07:01:02.819Z,23.70
2019-06-20T07:03:31.351Z,23.60
2019-06-20T07:06:02.210Z,23.60
2019-06-20T07:08:38.212Z,23.80
2019-06-20T07:11:09.010Z,23.90
2019-06-20T07:13:39.708Z,23.80
2019-06-20T07:16:08.549Z,23.60
2019-06-20T07:18:43.996Z,23.60
2019-06-20T07:21:15.009Z,23.80
2019-06-20T07:23:43.924Z,24.00
2019-06-20T07:26:12.602Z,24.10
2019-06-20T07:28:52.217Z,24.30
2019-06-20T07:31:20.937Z,24.60
2019-06-20T07:33:49.729Z,24.60
2019-06-20T07:36:18.737Z,24.70
2019-06-20T07:38:47.412Z,24.90
2019-06-20T07:41:17.884Z,25.10
2019-06-20T07:43:46.493Z,25.40
2019-06-20T07:46:15.177Z,25.30
2019-06-20T07:48:43.752Z,25.30
2019-06-20T07:51:12.440Z,25.10
2019-06-20T07:53:41.437Z,24.90
2019-06-20T07:56:10.302Z,24.80
2019-06-20T07:58:38.945Z,24.90
2019-06-20T08:01:07.753Z,25.30
2019-06-20T08:03:36.354Z,25.60
2019-06-20T08:06:05.131Z,26.10
2019-06-20T08:08:33.732Z,26.20
2019-06-20T08:11:02.368Z,26.50
2019-06-20T08:13:31.040Z,26.70
2019-06-20T08:16:03.210Z,26.90
2019-06-20T08:18:30.026Z,27.00
2019-06-20T08:20:58.808Z,26.90
2019-06-20T08:23:27.458Z,26.80
2019-06-20T08:25:57.514Z,26.80
2019-06-20T08:28:26.476Z,26.60
2019-06-20T08:30:56.086Z,26.60
2019-06-20T08:33:25.425Z,26.70
2019-06-20T08:35:54.106Z,26.70
2019-06-20T08:38:22.869Z,26.70
2019-06-20T08:40:51.561Z,26.70
2019-06-20T08:43:20.160Z,26.70
2019-06-20T08:45:49.062Z,26.90
2019-06-20T08:48:17.701Z,27.00
2019-06-20T08:50:46.371Z,26.50
2019-06-20T08:53:15.022Z,26.40
2019-06-20T08:55:44.891Z,26.40
2019-06-20T08:58:13.518Z,26.40
2019-06-20T09:00:42.683Z,26.60
2019-06-20T09:03:11.378Z,26.80
2019-06-20T09:05:40.061Z,27.10
2019-06-20T09:08:11.419Z,27.10
2019-06-20T09:10:42.688Z,27.10
2019-06-20T09:13:12.673Z,27.00
2019-06-20T09:15:42.957Z,26.90
2019-06-20T09:18:11.831Z,26.70
2019-06-20T09:20:40.985Z,26.70
2019-06-20T09:23:10.768Z,26.70
2019-06-20T09:25:39.759Z,26.70
2019-06-20T09:28:09.432Z,26.70
2019-06-20T09:30:39.541Z,26.70
2019-06-20T09:33:09.124Z,26.60
2019-06-20T09:35:37.858Z,26.50
2019-06-20T09:38:06.563Z,26.40
2019-06-20T09:40:35.287Z,26.30
2019-06-20T09:43:11.292Z,26.30
2019-06-20T09:45:41.321Z,26.30
2019-06-20T09:48:10.186Z,26.20
2019-06-20T09:50:38.901Z,26.30
2019-06-20T09:53:07.688Z,26.40
2019-06-20T09:55:36.418Z,26.40
2019-06-20T09:58:06.428Z,26.30
2019-06-20T10:00:35.373Z,26.20
2019-06-20T10:03:06.135Z,26.20
2019-06-20T10:05:35.189Z,26.10
2019-06-20T10:08:03.847Z,26.10
2019-06-20T10:10:32.997Z,26.00
2019-06-20T10:13:01.660Z,25.90
2019-06-20T10:15:34.320Z,25.90
2019-06-20T10:18:06.268Z,25.70
2019-06-20T10:20:39.160Z,25.60
2019-06-20T10:23:08.406Z,25.50
2019-06-20T10:25:37.440Z,25.50
2019-06-20T10:28:07.531Z,25.40
2019-06-20T10:30:36.434Z,25.40
2019-06-20T10:33:05.094Z,25.40
2019-06-20T10:35:35.212Z,25.50
2019-06-20T10:38:04.149Z,25.60
2019-06-20T10:40:32.712Z,25.70
2019-06-20T10:43:04.596Z,25.70
2019-06-20T10:45:34.263Z,25.80
2019-06-20T10:48:04.418Z,25.90
2019-06-20T10:50:33.279Z,25.90
2019-06-20T10:53:04.024Z,26.00
2019-06-20T10:55:32.608Z,26.10
2019-06-20T10:58:02.160Z,26.20
2019-06-20T11:00:32.413Z,26.20
2019-06-20T11:03:01.185Z,26.20
2019-06-20T11:05:31.101Z,26.30
2019-06-20T11:07:59.784Z,26.50
2019-06-20T11:10:29.296Z,26.60
2019-06-20T11:12:59.180Z,26.80
2019-06-20T11:15:29.162Z,26.90
2019-06-20T11:17:57.852Z,26.90
2019-06-20T11:20:27.754Z,27.00
2019-06-20T11:22:56.376Z,27.10
2019-06-20T11:25:31.338Z,27.30
2019-06-20T11:27:59.978Z,27.60
2019-06-20T11:30:44.948Z,27.70
2019-06-20T11:33:01.340Z,27.70
2019-06-20T11:35:30.137Z,28.00
2019-06-20T11:38:08.842Z,28.20
2019-06-20T11:40:38.287Z,28.30
2019-06-20T11:43:09.290Z,28.50
2019-06-20T11:45:43.004Z,28.80
2019-06-20T11:48:11.931Z,29.00
2019-06-20T11:50:46.815Z,28.90
2019-06-20T11:53:16.758Z,28.90
2019-06-20T11:55:45.562Z,29.00
2019-06-20T11:58:14.440Z,28.80
2019-06-20T12:01:02.477Z,28.80
2019-06-20T12:03:18.500Z,28.80
2019-06-20T12:05:47.320Z,28.60
2019-06-20T12:08:18.216Z,28.50
2019-06-20T12:10:49.379Z,28.50
2019-06-20T12:13:18.047Z,28.70
2019-06-20T12:15:49.613Z,29.10
2019-06-20T12:18:21.101Z,29.20
2019-06-20T12:20:50.171Z,29.40
2019-06-20T12:23:18.953Z,29.40
2019-06-20T12:25:58.362Z,29.70
2019-06-20T12:28:26.931Z,29.70
2019-06-20T12:30:56.921Z,29.40
2019-06-20T12:33:25.604Z,29.80
2019-06-20T12:35:54.293Z,29.80
2019-06-20T12:38:22.928Z,30.00
2019-06-20T12:40:51.719Z,30.00
2019-06-20T12:43:20.297Z,30.00
2019-06-20T12:45:51.697Z,29.90
2019-06-20T12:48:20.521Z,29.90
2019-06-20T12:50:49.592Z,30.00
2019-06-20T12:53:18.258Z,30.10
2019-06-20T12:55:48.068Z,30.20
2019-06-20T12:58:16.835Z,30.10
2019-06-20T13:00:50.325Z,30.30
2019-06-20T13:03:19.235Z,30.60
2019-06-20T13:05:49.187Z,30.50
2019-06-20T13:08:19.096Z,30.30
2019-06-20T13:10:48.297Z,30.20
2019-06-20T13:13:17.146Z,30.30
2019-06-20T13:15:46.998Z,30.40
2019-06-20T13:18:15.908Z,30.10
2019-06-20T13:20:44.491Z,30.10
2019-06-20T13:23:13.109Z,30.10
2019-06-20T13:25:42.568Z,30.30
2019-06-20T13:28:11.325Z,30.40
2019-06-20T13:30:41.874Z,30.30
2019-06-20T13:33:10.794Z,30.40
2019-06-20T13:35:40.513Z,30.30
2019-06-20T13:38:09.736Z,30.50
2019-06-20T13:40:39.513Z,30.50
2019-06-20T13:43:08.758Z,30.60
2019-06-20T13:45:37.566Z,30.80
2019-06-20T13:48:06.381Z,30.80
2019-06-20T13:50:34.840Z,31.10
2019-06-20T13:53:03.833Z,30.90
2019-06-20T13:55:33.873Z,31.10
2019-06-20T13:58:02.631Z,31.20
2019-06-20T14:00:31.648Z,31.20
2019-06-20T14:03:00.472Z,31.40
2019-06-20T14:05:29.084Z,31.30
2019-06-20T14:07:57.714Z,30.90
2019-06-20T14:10:26.926Z,30.90
2019-06-20T14:12:56.049Z,30.60
2019-06-20T14:15:24.670Z,30.50
2019-06-20T14:17:53.897Z,30.70
2019-06-20T14:20:23.969Z,30.70
2019-06-20T14:22:52.715Z,30.70
2019-06-20T14:25:21.698Z,30.60
2019-06-20T14:27:51.575Z,30.70
2019-06-20T14:30:21.616Z,30.80
2019-06-20T14:32:51.423Z,31.00
2019-06-20T14:35:21.022Z,31.10
2019-06-20T14:37:51.635Z,31.00
2019-06-20T14:40:20.871Z,30.90
2019-06-20T14:42:50.381Z,30.70
2019-06-20T14:45:19.885Z,30.60
2019-06-20T14:47:48.692Z,30.70
2019-06-20T14:50:19.590Z,30.90
2019-06-20T14:52:50.010Z,30.90
2019-06-20T14:55:20.161Z,30.90
2019-06-20T14:57:50.396Z,31.10
2019-06-20T15:00:21.331Z,31.10
2019-06-20T15:02:54.914Z,31.30
2019-06-20T15:05:21.503Z,31.20
2019-06-20T15:07:53.889Z,30.80
2019-06-20T15:10:23.699Z,30.80
2019-06-20T15:12:53.645Z,30.60
2019-06-20T15:15:22.840Z,30.60
2019-06-20T15:17:54.024Z,30.20
2019-06-20T15:20:21.990Z,30.10
2019-06-20T15:22:52.200Z,29.90
2019-06-20T15:25:22.268Z,29.80
2019-06-20T15:27:53.144Z,29.70
2019-06-20T15:30:21.280Z,29.50
2019-06-20T15:33:01.821Z,29.50
2019-06-20T15:35:21.571Z,29.70
2019-06-20T15:37:51.513Z,29.90
2019-06-20T15:40:20.799Z,30.10
2019-06-20T15:42:51.106Z,30.00
2019-06-20T15:45:19.981Z,29.90
2019-06-20T15:47:50.112Z,30.00
2019-06-20T15:50:19.770Z,30.10
2019-06-20T15:52:48.822Z,29.90
2019-06-20T15:55:19.909Z,29.40
2019-06-20T15:57:48.634Z,29.10
2019-06-20T16:00:18.061Z,29.00
2019-06-20T16:02:46.838Z,28.90
2019-06-20T16:05:15.905Z,29.10
2019-06-20T16:07:44.579Z,29.10
2019-06-20T16:10:14.971Z,29.30
2019-06-20T16:12:44.070Z,29.60
2019-06-20T16:15:15.742Z,29.90
2019-06-20T16:17:44.363Z,30.00
2019-06-20T16:20:13.214Z,30.10
2019-06-20T16:22:42.406Z,30.20
2019-06-20T16:25:11.611Z,30.30
2019-06-20T16:27:40.379Z,30.30
2019-06-20T16:30:10.133Z,30.10
2019-06-20T16:32:39.007Z,30.20
2019-06-20T16:35:08.771Z,30.30
2019-06-20T16:37:37.576Z,30.20
2019-06-20T16:40:08.589Z,30.10
2019-06-20T16:42:37.642Z,30.00
2019-06-20T16:45:08.367Z,29.90
2019-06-20T16:47:37.244Z,29.90
2019-06-20T16:50:08.225Z,29.80
2019-06-20T16:52:36.910Z,29.70
2019-06-20T16:55:09.348Z,29.60
2019-06-20T16:57:38.404Z,29.50
2019-06-20T17:00:12.770Z,29.40
2019-06-20T17:02:41.809Z,29.30
2019-06-20T17:05:11.026Z,29.10
2019-06-20T17:07:39.738Z,28.90
2019-06-20T17:10:09.651Z,28.80
2019-06-20T17:12:38.360Z,28.70
2019-06-20T17:15:08.201Z,28.60
2019-06-20T17:17:37.053Z,28.50
2019-06-20T17:20:17.559Z,28.50
2019-06-20T17:22:46.728Z,28.50
2019-06-20T17:25:15.990Z,28.40
2019-06-20T17:27:44.713Z,28.30
2019-06-20T17:30:16.055Z,28.20
2019-06-20T17:32:44.636Z,28.20
2019-06-20T17:35:14.089Z,28.10
2019-06-20T17:37:45.025Z,28.10
2019-06-20T17:40:18.068Z,28.00
2019-06-20T17:42:48.001Z,27.90
2019-06-20T17:45:17.025Z,27.90
2019-06-20T17:47:45.831Z,27.80
2019-06-20T17:50:15.141Z,27.80
2019-06-20T17:52:43.938Z,27.80
2019-06-20T17:55:13.408Z,27.60
2019-06-20T17:57:42.374Z,27.60
2019-06-20T18:00:16.926Z,27.50
2019-06-20T18:02:45.787Z,27.50
2019-06-20T18:05:16.778Z,27.40
2019-06-20T18:07:46.358Z,27.30
2019-06-20T18:10:17.009Z,27.30
2019-06-20T18:12:45.745Z,27.20
2019-06-20T18:15:17.575Z,27.20
2019-06-20T18:17:46.394Z,27.10
2019-06-20T18:20:16.624Z,27.10
2019-06-20T18:22:45.303Z,27.00
2019-06-20T18:25:14.507Z,27.00
2019-06-20T18:27:43.119Z,27.00
2019-06-20T18:30:13.805Z,27.00
2019-06-20T18:32:42.675Z,26.90
2019-06-20T18:35:12.083Z,26.90
2019-06-20T18:37:40.920Z,26.90
2019-06-20T18:40:11.179Z,26.80
2019-06-20T18:42:42.059Z,26.80
2019-06-20T18:45:11.616Z,26.80
2019-06-20T18:47:42.470Z,26.70
2019-06-20T18:50:15.436Z,26.80
2019-06-20T18:52:52.199Z,26.70
2019-06-20T18:55:18.233Z,26.70
2019-06-20T18:57:47.130Z,26.70
2019-06-20T19:00:30.796Z,26.60
2019-06-20T19:02:47.361Z,26.60
2019-06-20T19:05:16.048Z,26.50
2019-06-20T19:07:44.711Z,26.50
2019-06-20T19:10:15.348Z,26.50
2019-06-20T19:12:44.019Z,26.50
2019-06-20T19:15:13.594Z,26.40
2019-06-20T19:17:43.604Z,26.40
2019-06-20T19:20:14.200Z,26.30
2019-06-20T19:22:43.051Z,26.30
2019-06-20T19:25:13.212Z,26.20
2019-06-20T19:27:46.510Z,26.10
2019-06-20T19:30:15.046Z,26.00
2019-06-20T19:32:43.868Z,26.00
2019-06-20T19:35:12.784Z,25.90
2019-06-20T19:37:42.232Z,25.90
2019-06-20T19:40:11.842Z,25.80
2019-06-20T19:42:42.182Z,25.70
2019-06-20T19:45:17.374Z,25.60
2019-06-20T19:47:46.275Z,25.50
2019-06-20T19:50:16.425Z,25.50
2019-06-20T19:52:45.299Z,25.40
2019-06-20T19:55:15.296Z,25.40
2019-06-20T19:57:44.295Z,25.40
2019-06-20T20:00:14.539Z,25.40
2019-06-20T20:02:43.228Z,25.30
2019-06-20T20:05:19.643Z,25.10
2019-06-20T20:07:44.466Z,25.10
2019-06-20T20:10:14.950Z,25.00
2019-06-20T20:12:43.698Z,24.90
2019-06-20T20:15:12.595Z,24.80
2019-06-20T20:17:41.471Z,24.50
2019-06-20T20:20:10.432Z,24.40
2019-06-20T20:22:40.321Z,24.20
2019-06-20T20:25:11.927Z,24.10
2019-06-20T20:27:40.794Z,24.10
2019-06-20T20:30:10.641Z,24.10
2019-06-20T20:32:39.591Z,24.10
2019-06-20T20:35:09.207Z,24.00
2019-06-20T20:37:39.497Z,23.90
2019-06-20T20:40:10.228Z,23.80
2019-06-20T20:42:39.084Z,23.70
2019-06-20T20:45:09.292Z,23.60
2019-06-20T20:47:38.086Z,23.50
2019-06-20T20:50:09.135Z,23.60
2019-06-20T20:52:37.875Z,23.60
2019-06-20T20:55:11.450Z,23.60
2019-06-20T20:57:40.383Z,23.60
2019-06-20T21:00:21.119Z,23.60
2019-06-20T21:02:49.822Z,23.60
2019-06-20T21:05:18.454Z,23.60
2019-06-20T21:07:47.187Z,23.60
2019-06-20T21:10:18.664Z,23.60
2019-06-20T21:12:47.317Z,23.60
2019-06-20T21:15:18.082Z,23.60
2019-06-20T21:17:46.805Z,23.50
2019-06-20T21:20:16.296Z,23.30
2019-06-20T21:22:45.197Z,23.20
2019-06-20T21:25:14.430Z,23.20
2019-06-20T21:27:43.156Z,23.10
2019-06-20T21:30:13.134Z,23.10
2019-06-20T21:32:41.813Z,23.00
2019-06-20T21:35:12.447Z,23.10
2019-06-20T21:37:41.543Z,23.10
2019-06-20T21:40:11.478Z,23.10
2019-06-20T21:42:40.306Z,23.00
2019-06-20T21:45:11.088Z,22.90
2019-06-20T21:47:39.776Z,22.90
2019-06-20T21:50:09.871Z,22.80
2019-06-20T21:52:38.758Z,22.80
2019-06-20T21:55:08.521Z,22.70
2019-06-20T21:57:37.319Z,22.60
2019-06-20T22:00:31.717Z,22.60
2019-06-20T22:03:00.494Z,22.60
2019-06-20T22:05:30.385Z,22.40
2019-06-20T22:07:59.170Z,22.30
2019-06-20T22:10:28.914Z,22.30
2019-06-20T22:12:58.414Z,22.20
2019-06-20T22:15:29.313Z,22.10
2019-06-20T22:17:59.198Z,22.10
2019-06-20T22:20:28.572Z,21.90
2019-06-20T22:22:57.415Z,21.70
2019-06-20T22:25:26.776Z,21.60
2019-06-20T22:27:55.423Z,21.50
2019-06-20T22:30:49.477Z,21.40
2019-06-20T22:33:18.198Z,21.40
2019-06-20T22:35:47.779Z,21.30
2019-06-20T22:38:16.520Z,21.30
2019-06-20T22:40:46.320Z,21.20
2019-06-20T22:43:15.073Z,21.20
2019-06-20T22:45:43.894Z,21.10
2019-06-20T22:48:13.730Z,20.90
2019-06-20T22:50:42.667Z,20.90
2019-06-20T22:53:11.387Z,20.90
2019-06-20T22:55:40.452Z,20.90
2019-06-20T22:58:10.668Z,20.80
2019-06-20T23:00:39.459Z,20.70
2019-06-20T23:03:08.093Z,20.70
2019-06-20T23:05:36.981Z,20.60
2019-06-20T23:08:06.987Z,20.60
2019-06-20T23:10:35.523Z,20.60
2019-06-20T23:13:04.978Z,20.60
2019-06-20T23:15:36.976Z,20.60
2019-06-20T23:18:06.614Z,20.60
2019-06-20T23:20:35.204Z,20.60
2019-06-20T23:23:04.295Z,20.60
2019-06-20T23:25:33.590Z,20.60
2019-06-20T23:28:02.265Z,20.60
2019-06-20T23:30:31.672Z,20.60
2019-06-20T23:33:00.230Z,20.60
2019-06-20T23:35:28.875Z,20.60
2019-06-20T23:37:57.584Z,20.60
2019-06-20T23:40:26.254Z,20.60
2019-06-20T23:42:55.027Z,20.60
2019-06-20T23:45:23.814Z,20.60
2019-06-20T23:47:52.324Z,20.70
2019-06-20T23:50:21.215Z,20.70
2019-06-20T23:52:52.620Z,20.70
2019-06-20T23:55:21.375Z,20.60
2019-06-20T23:57:49.974Z,20.60
